sensor_id;sensor_type;location;lat;lon;timestamp;P1;durP1;ratioP1;P2;durP2;ratioP2
4857;SDS011;58975;51.978;8.472;2022-12-07T00:06:13;45.93;;;22.77;;
4857;SDS011;58975;51.978;8.472;2022-12-07T00:11:17;54.28;;;25.38;;
4857;SDS011;58975;51.978;8.472;2022-12-07T00:16:16;61.30;;;28.60;;
4857;SDS011;58975;51.978;8.472;2022-12-07T00:21:16;64.20;;;28.65;;
4857;SDS011;58975;51.978;8.472;2022-12-07T00:26:21;66.00;;;30.05;;
4857;SDS011;58975;51.978;8.472;2022-12-07T00:31:20;59.15;;;28.58;;
4857;SDS011;58975;51.978;8.472;2022-12-07T00:36:22;59.03;;;26.38;;
4857;SDS011;58975;51.978;8.472;2022-12-07T00:41:23;65.32;;;27.23;;
4857;SDS011;58975;51.978;8.472;2022-12-07T00:46:21;65.18;;;27.75;;
4857;SDS011;58975;51.978;8.472;2022-12-07T00:51:19;65.47;;;27.27;;
4857;SDS011;58975;51.978;8.472;2022-12-07T00:56:22;62.88;;;27.17;;
4857;SDS011;58975;51.978;8.472;2022-12-07T01:01:20;57.28;;;26.60;;
4857;SDS011;58975;51.978;8.472;2022-12-07T01:06:17;58.10;;;26.33;;
4857;SDS011;58975;51.978;8.472;2022-12-07T01:11:16;64.28;;;25.20;;
4857;SDS011;58975;51.978;8.472;2022-12-07T01:16:15;54.10;;;25.55;;
4857;SDS011;58975;51.978;8.472;2022-12-07T01:21:13;56.50;;;23.73;;
4857;SDS011;58975;51.978;8.472;2022-12-07T01:26:19;48.58;;;23.80;;
4857;SDS011;58975;51.978;8.472;2022-12-07T01:31:19;50.13;;;22.92;;
4857;SDS011;58975;51.978;8.472;2022-12-07T01:41:15;46.55;;;21.55;;
4857;SDS011;58975;51.978;8.472;2022-12-07T01:46:12;46.15;;;22.63;;
4857;SDS011;58975;51.978;8.472;2022-12-07T01:51:09;47.55;;;21.33;;
4857;SDS011;58975;51.978;8.472;2022-12-07T01:56:10;38.17;;;18.17;;
4857;SDS011;58975;51.978;8.472;2022-12-07T02:01:11;40.92;;;19.73;;
4857;SDS011;58975;51.978;8.472;2022-12-07T02:06:08;44.33;;;21.65;;
4857;SDS011;58975;51.978;8.472;2022-12-07T02:11:08;44.90;;;20.38;;
4857;SDS011;58975;51.978;8.472;2022-12-07T02:21:51;41.05;;;20.00;;
4857;SDS011;58975;51.978;8.472;2022-12-07T02:32:11;32.42;;;15.38;;
4857;SDS011;58975;51.978;8.472;2022-12-07T02:42:30;30.23;;;13.85;;
4857;SDS011;58975;51.978;8.472;2022-12-07T02:47:32;24.27;;;12.20;;
4857;SDS011;58975;51.978;8.472;2022-12-07T02:52:30;25.27;;;12.23;;
4857;SDS011;58975;51.978;8.472;2022-12-07T02:57:45;21.20;;;11.80;;
4857;SDS011;58975;51.978;8.472;2022-12-07T03:03:03;29.13;;;11.68;;
4857;SDS011;58975;51.978;8.472;2022-12-07T03:08:11;21.77;;;11.07;;
4857;SDS011;58975;51.978;8.472;2022-12-07T03:13:22;25.08;;;13.02;;
4857;SDS011;58975;51.978;8.472;2022-12-07T03:18:24;23.00;;;11.20;;
4857;SDS011;58975;51.978;8.472;2022-12-07T03:23:23;22.98;;;11.57;;
4857;SDS011;58975;51.978;8.472;2022-12-07T03:28:22;22.92;;;12.90;;
4857;SDS011;58975;51.978;8.472;2022-12-07T03:33:28;19.42;;;11.18;;
4857;SDS011;58975;51.978;8.472;2022-12-07T03:38:30;16.58;;;9.38;;
4857;SDS011;58975;51.978;8.472;2022-12-07T03:43:39;19.90;;;10.65;;
4857;SDS011;58975;51.978;8.472;2022-12-07T03:48:37;16.67;;;9.52;;
4857;SDS011;58975;51.978;8.472;2022-12-07T03:53:44;22.40;;;11.13;;
4857;SDS011;58975;51.978;8.472;2022-12-07T03:58:48;19.35;;;8.68;;
4857;SDS011;58975;51.978;8.472;2022-12-07T04:03:45;19.83;;;9.25;;
4857;SDS011;58975;51.978;8.472;2022-12-07T04:08:41;21.40;;;8.82;;
4857;SDS011;58975;51.978;8.472;2022-12-07T04:13:38;20.27;;;9.45;;
4857;SDS011;58975;51.978;8.472;2022-12-07T04:18:53;18.98;;;8.57;;
4857;SDS011;58975;51.978;8.472;2022-12-07T04:23:49;16.75;;;8.30;;
4857;SDS011;58975;51.978;8.472;2022-12-07T04:28:45;20.15;;;9.57;;
4857;SDS011;58975;51.978;8.472;2022-12-07T04:33:42;15.50;;;9.30;;
4857;SDS011;58975;51.978;8.472;2022-12-07T04:38:38;18.48;;;8.77;;
4857;SDS011;58975;51.978;8.472;2022-12-07T04:43:35;21.88;;;9.05;;
4857;SDS011;58975;51.978;8.472;2022-12-07T04:48:32;22.60;;;9.23;;
4857;SDS011;58975;51.978;8.472;2022-12-07T04:53:28;18.13;;;10.00;;
4857;SDS011;58975;51.978;8.472;2022-12-07T04:58:24;23.60;;;10.05;;
4857;SDS011;58975;51.978;8.472;2022-12-07T05:03:21;21.92;;;9.20;;
4857;SDS011;58975;51.978;8.472;2022-12-07T05:08:17;16.65;;;9.75;;
4857;SDS011;58975;51.978;8.472;2022-12-07T05:13:14;20.23;;;10.02;;
4857;SDS011;58975;51.978;8.472;2022-12-07T05:18:10;23.85;;;9.10;;
4857;SDS011;58975;51.978;8.472;2022-12-07T05:23:08;20.63;;;8.77;;
4857;SDS011;58975;51.978;8.472;2022-12-07T05:28:05;20.90;;;9.65;;
4857;SDS011;58975;51.978;8.472;2022-12-07T05:33:02;22.80;;;9.65;;
4857;SDS011;58975;51.978;8.472;2022-12-07T05:37:58;20.02;;;10.75;;
4857;SDS011;58975;51.978;8.472;2022-12-07T05:42:55;27.40;;;11.30;;
4857;SDS011;58975;51.978;8.472;2022-12-07T05:47:59;21.75;;;11.10;;
4857;SDS011;58975;51.978;8.472;2022-12-07T05:52:55;22.30;;;10.10;;
4857;SDS011;58975;51.978;8.472;2022-12-07T05:57:52;21.35;;;11.00;;
4857;SDS011;58975;51.978;8.472;2022-12-07T06:03:17;22.83;;;10.88;;
4857;SDS011;58975;51.978;8.472;2022-12-07T06:08:14;21.05;;;10.23;;
4857;SDS011;58975;51.978;8.472;2022-12-07T06:13:11;21.27;;;11.07;;
4857;SDS011;58975;51.978;8.472;2022-12-07T06:18:08;28.65;;;10.57;;
4857;SDS011;58975;51.978;8.472;2022-12-07T06:23:04;22.90;;;10.90;;
4857;SDS011;58975;51.978;8.472;2022-12-07T06:28:00;23.75;;;10.57;;
4857;SDS011;58975;51.978;8.472;2022-12-07T06:32:57;20.15;;;10.15;;
4857;SDS011;58975;51.978;8.472;2022-12-07T06:37:53;19.42;;;9.82;;
4857;SDS011;58975;51.978;8.472;2022-12-07T06:42:49;23.00;;;10.32;;
4857;SDS011;58975;51.978;8.472;2022-12-07T06:47:46;28.13;;;10.95;;
4857;SDS011;58975;51.978;8.472;2022-12-07T06:52:43;23.83;;;10.15;;
4857;SDS011;58975;51.978;8.472;2022-12-07T06:57:39;23.95;;;10.02;;
4857;SDS011;58975;51.978;8.472;2022-12-07T07:02:36;23.83;;;11.05;;
4857;SDS011;58975;51.978;8.472;2022-12-07T07:07:32;20.65;;;9.48;;
4857;SDS011;58975;51.978;8.472;2022-12-07T07:12:49;31.55;;;11.25;;
4857;SDS011;58975;51.978;8.472;2022-12-07T07:17:52;23.75;;;8.98;;
4857;SDS011;58975;51.978;8.472;2022-12-07T07:22:48;26.27;;;10.35;;
4857;SDS011;58975;51.978;8.472;2022-12-07T07:27:45;19.42;;;8.35;;
4857;SDS011;58975;51.978;8.472;2022-12-07T07:32:42;23.08;;;8.32;;
4857;SDS011;58975;51.978;8.472;2022-12-07T07:37:38;20.17;;;8.52;;
4857;SDS011;58975;51.978;8.472;2022-12-07T07:42:35;23.58;;;8.75;;
4857;SDS011;58975;51.978;8.472;2022-12-07T07:47:31;20.42;;;9.43;;
4857;SDS011;58975;51.978;8.472;2022-12-07T07:52:28;19.25;;;9.13;;
4857;SDS011;58975;51.978;8.472;2022-12-07T07:57:24;21.80;;;8.88;;
4857;SDS011;58975;51.978;8.472;2022-12-07T08:02:20;26.20;;;8.60;;
4857;SDS011;58975;51.978;8.472;2022-12-07T08:07:18;22.05;;;9.27;;
4857;SDS011;58975;51.978;8.472;2022-12-07T08:12:14;27.75;;;9.73;;
4857;SDS011;58975;51.978;8.472;2022-12-07T08:17:10;23.90;;;9.43;;
4857;SDS011;58975;51.978;8.472;2022-12-07T08:22:07;16.75;;;7.13;;
4857;SDS011;58975;51.978;8.472;2022-12-07T08:27:03;19.10;;;7.30;;
4857;SDS011;58975;51.978;8.472;2022-12-07T08:32:00;18.98;;;8.38;;
4857;SDS011;58975;51.978;8.472;2022-12-07T08:37:04;19.05;;;7.75;;
4857;SDS011;58975;51.978;8.472;2022-12-07T08:42:00;19.33;;;8.10;;
4857;SDS011;58975;51.978;8.472;2022-12-07T08:46:58;21.73;;;7.30;;
4857;SDS011;58975;51.978;8.472;2022-12-07T08:51:57;19.73;;;7.57;;
4857;SDS011;58975;51.978;8.472;2022-12-07T08:56:54;19.15;;;6.28;;
4857;SDS011;58975;51.978;8.472;2022-12-07T09:01:55;18.88;;;6.55;;
4857;SDS011;58975;51.978;8.472;2022-12-07T09:06:51;13.65;;;6.63;;
4857;SDS011;58975;51.978;8.472;2022-12-07T09:11:49;25.43;;;6.73;;
4857;SDS011;58975;51.978;8.472;2022-12-07T09:16:46;13.02;;;5.95;;
4857;SDS011;58975;51.978;8.472;2022-12-07T09:21:42;14.60;;;6.10;;
4857;SDS011;58975;51.978;8.472;2022-12-07T09:26:39;15.13;;;5.85;;
4857;SDS011;58975;51.978;8.472;2022-12-07T09:31:37;16.05;;;6.15;;
4857;SDS011;58975;51.978;8.472;2022-12-07T09:36:33;22.58;;;6.32;;
4857;SDS011;58975;51.978;8.472;2022-12-07T09:41:31;12.27;;;6.40;;
4857;SDS011;58975;51.978;8.472;2022-12-07T09:46:28;23.17;;;6.30;;
4857;SDS011;58975;51.978;8.472;2022-12-07T09:51:31;19.35;;;5.90;;
4857;SDS011;58975;51.978;8.472;2022-12-07T09:56:28;14.98;;;5.53;;
4857;SDS011;58975;51.978;8.472;2022-12-07T10:01:30;16.08;;;4.63;;
4857;SDS011;58975;51.978;8.472;2022-12-07T10:06:29;10.23;;;3.97;;
4857;SDS011;58975;51.978;8.472;2022-12-07T10:11:25;13.95;;;4.60;;
4857;SDS011;58975;51.978;8.472;2022-12-07T10:21:39;17.20;;;3.50;;
4857;SDS011;58975;51.978;8.472;2022-12-07T10:26:56;10.02;;;3.30;;
4857;SDS011;58975;51.978;8.472;2022-12-07T10:31:54;7.20;;;3.45;;
4857;SDS011;58975;51.978;8.472;2022-12-07T10:36:54;6.93;;;3.42;;
4857;SDS011;58975;51.978;8.472;2022-12-07T10:42:05;12.95;;;3.22;;
4857;SDS011;58975;51.978;8.472;2022-12-07T10:47:18;8.85;;;3.58;;
4857;SDS011;58975;51.978;8.472;2022-12-07T10:52:40;19.23;;;4.55;;
4857;SDS011;58975;51.978;8.472;2022-12-07T11:08:31;17.95;;;2.47;;
4857;SDS011;58975;51.978;8.472;2022-12-07T11:13:46;7.88;;;1.95;;
4857;SDS011;58975;51.978;8.472;2022-12-07T11:23:56;6.15;;;1.75;;
4857;SDS011;58975;51.978;8.472;2022-12-07T11:29:13;6.75;;;2.83;;
4857;SDS011;58975;51.978;8.472;2022-12-07T11:39:33;5.43;;;1.60;;
4857;SDS011;58975;51.978;8.472;2022-12-07T11:44:48;6.03;;;1.35;;
4857;SDS011;58975;51.978;8.472;2022-12-07T12:00:30;11.73;;;2.22;;
4857;SDS011;58975;51.978;8.472;2022-12-07T12:05:28;4.93;;;0.80;;
4857;SDS011;58975;51.978;8.472;2022-12-07T12:11:10;8.25;;;1.00;;
4857;SDS011;58975;51.978;8.472;2022-12-07T12:15:52;6.93;;;1.00;;
4857;SDS011;58975;51.978;8.472;2022-12-07T12:20:57;7.63;;;1.35;;
4857;SDS011;58975;51.978;8.472;2022-12-07T12:26:01;5.15;;;1.65;;
4857;SDS011;58975;51.978;8.472;2022-12-07T12:31:05;4.07;;;1.50;;
4857;SDS011;58975;51.978;8.472;2022-12-07T12:36:22;2.13;;;1.02;;
4857;SDS011;58975;51.978;8.472;2022-12-07T12:46:37;1.88;;;1.33;;
4857;SDS011;58975;51.978;8.472;2022-12-07T12:51:46;7.35;;;1.58;;
4857;SDS011;58975;51.978;8.472;2022-12-07T13:12:58;4.18;;;1.00;;
4857;SDS011;58975;51.978;8.472;2022-12-07T13:17:59;3.50;;;0.98;;
4857;SDS011;58975;51.978;8.472;2022-12-07T13:22:58;5.28;;;1.00;;
4857;SDS011;58975;51.978;8.472;2022-12-07T13:27:59;11.00;;;1.83;;
4857;SDS011;58975;51.978;8.472;2022-12-07T13:32:59;8.35;;;1.20;;
4857;SDS011;58975;51.978;8.472;2022-12-07T13:37:56;8.73;;;1.13;;
4857;SDS011;58975;51.978;8.472;2022-12-07T13:42:59;8.30;;;1.00;;
4857;SDS011;58975;51.978;8.472;2022-12-07T13:47:57;4.72;;;1.92;;
4857;SDS011;58975;51.978;8.472;2022-12-07T13:52:55;9.23;;;0.97;;
4857;SDS011;58975;51.978;8.472;2022-12-07T13:57:54;6.22;;;1.13;;
4857;SDS011;58975;51.978;8.472;2022-12-07T14:08:05;3.83;;;1.10;;
4857;SDS011;58975;51.978;8.472;2022-12-07T14:18:38;2.08;;;1.25;;
4857;SDS011;58975;51.978;8.472;2022-12-07T14:23:37;9.07;;;1.27;;
4857;SDS011;58975;51.978;8.472;2022-12-07T14:28:35;8.98;;;2.85;;
4857;SDS011;58975;51.978;8.472;2022-12-07T14:33:33;11.18;;;3.35;;
4857;SDS011;58975;51.978;8.472;2022-12-07T14:38:29;6.72;;;1.77;;
4857;SDS011;58975;51.978;8.472;2022-12-07T14:43:26;3.55;;;1.02;;
4857;SDS011;58975;51.978;8.472;2022-12-07T14:48:22;9.55;;;1.50;;
4857;SDS011;58975;51.978;8.472;2022-12-07T14:53:48;4.75;;;1.05;;
4857;SDS011;58975;51.978;8.472;2022-12-07T14:58:52;6.50;;;1.70;;
4857;SDS011;58975;51.978;8.472;2022-12-07T15:03:49;5.45;;;1.00;;
4857;SDS011;58975;51.978;8.472;2022-12-07T15:08:46;5.93;;;1.65;;
4857;SDS011;58975;51.978;8.472;2022-12-07T15:13:43;3.10;;;1.83;;
4857;SDS011;58975;51.978;8.472;2022-12-07T15:18:57;6.63;;;1.27;;
4857;SDS011;58975;51.978;8.472;2022-12-07T15:24:14;6.00;;;1.25;;
4857;SDS011;58975;51.978;8.472;2022-12-07T15:29:10;9.77;;;2.15;;
4857;SDS011;58975;51.978;8.472;2022-12-07T15:34:07;9.20;;;1.63;;
4857;SDS011;58975;51.978;8.472;2022-12-07T15:39:04;9.30;;;1.45;;
4857;SDS011;58975;51.978;8.472;2022-12-07T15:44:11;9.02;;;2.00;;
4857;SDS011;58975;51.978;8.472;2022-12-07T15:49:27;7.85;;;2.10;;
4857;SDS011;58975;51.978;8.472;2022-12-07T15:54:25;11.65;;;2.38;;
4857;SDS011;58975;51.978;8.472;2022-12-07T15:59:23;10.13;;;2.60;;
4857;SDS011;58975;51.978;8.472;2022-12-07T16:04:21;8.07;;;2.33;;
4857;SDS011;58975;51.978;8.472;2022-12-07T16:09:18;4.55;;;1.98;;
4857;SDS011;58975;51.978;8.472;2022-12-07T16:14:14;9.07;;;2.58;;
4857;SDS011;58975;51.978;8.472;2022-12-07T16:19:11;8.43;;;3.67;;
4857;SDS011;58975;51.978;8.472;2022-12-07T16:24:07;6.20;;;3.10;;
4857;SDS011;58975;51.978;8.472;2022-12-07T16:29:06;7.45;;;2.33;;
4857;SDS011;58975;51.978;8.472;2022-12-07T16:34:02;12.30;;;2.53;;
4857;SDS011;58975;51.978;8.472;2022-12-07T16:38:59;8.20;;;1.85;;
4857;SDS011;58975;51.978;8.472;2022-12-07T16:43:56;6.53;;;2.35;;
4857;SDS011;58975;51.978;8.472;2022-12-07T16:48:53;7.82;;;2.85;;
4857;SDS011;58975;51.978;8.472;2022-12-07T16:53:51;11.50;;;2.78;;
4857;SDS011;58975;51.978;8.472;2022-12-07T16:58:48;4.63;;;2.65;;
4857;SDS011;58975;51.978;8.472;2022-12-07T17:03:46;10.18;;;3.63;;
4857;SDS011;58975;51.978;8.472;2022-12-07T17:08:43;9.25;;;3.05;;
4857;SDS011;58975;51.978;8.472;2022-12-07T17:13:39;6.72;;;1.85;;
4857;SDS011;58975;51.978;8.472;2022-12-07T17:18:55;8.45;;;2.40;;
4857;SDS011;58975;51.978;8.472;2022-12-07T17:23:52;7.85;;;2.80;;
4857;SDS011;58975;51.978;8.472;2022-12-07T17:28:49;9.85;;;2.65;;
4857;SDS011;58975;51.978;8.472;2022-12-07T17:33:46;6.32;;;2.60;;
4857;SDS011;58975;51.978;8.472;2022-12-07T17:38:43;12.18;;;2.45;;
4857;SDS011;58975;51.978;8.472;2022-12-07T17:43:40;5.97;;;2.28;;
4857;SDS011;58975;51.978;8.472;2022-12-07T17:48:36;11.40;;;2.17;;
4857;SDS011;58975;51.978;8.472;2022-12-07T17:53:32;10.25;;;2.75;;
4857;SDS011;58975;51.978;8.472;2022-12-07T17:58:29;11.23;;;2.80;;
4857;SDS011;58975;51.978;8.472;2022-12-07T18:03:25;8.38;;;2.47;;
4857;SDS011;58975;51.978;8.472;2022-12-07T18:08:22;11.38;;;2.53;;
4857;SDS011;58975;51.978;8.472;2022-12-07T18:13:18;7.28;;;2.85;;
4857;SDS011;58975;51.978;8.472;2022-12-07T18:18:33;8.85;;;3.15;;
4857;SDS011;58975;51.978;8.472;2022-12-07T18:23:30;13.98;;;3.97;;
4857;SDS011;58975;51.978;8.472;2022-12-07T18:28:28;13.68;;;4.28;;
4857;SDS011;58975;51.978;8.472;2022-12-07T18:33:26;14.52;;;5.80;;
4857;SDS011;58975;51.978;8.472;2022-12-07T18:38:22;4.90;;;2.78;;
4857;SDS011;58975;51.978;8.472;2022-12-07T18:43:19;7.63;;;3.40;;
4857;SDS011;58975;51.978;8.472;2022-12-07T18:48:15;20.52;;;7.90;;
4857;SDS011;58975;51.978;8.472;2022-12-07T18:53:14;11.02;;;4.20;;
4857;SDS011;58975;51.978;8.472;2022-12-07T18:58:11;16.30;;;6.65;;
4857;SDS011;58975;51.978;8.472;2022-12-07T19:03:07;10.30;;;5.43;;
4857;SDS011;58975;51.978;8.472;2022-12-07T19:08:03;10.98;;;4.88;;
4857;SDS011;58975;51.978;8.472;2022-12-07T19:13:00;12.75;;;5.82;;
4857;SDS011;58975;51.978;8.472;2022-12-07T19:17:57;13.07;;;7.18;;
4857;SDS011;58975;51.978;8.472;2022-12-07T19:22:53;12.50;;;6.45;;
4857;SDS011;58975;51.978;8.472;2022-12-07T19:27:51;22.10;;;7.93;;
4857;SDS011;58975;51.978;8.472;2022-12-07T19:32:47;20.42;;;8.73;;
4857;SDS011;58975;51.978;8.472;2022-12-07T19:37:43;12.88;;;7.47;;
4857;SDS011;58975;51.978;8.472;2022-12-07T19:42:40;18.15;;;8.75;;
4857;SDS011;58975;51.978;8.472;2022-12-07T19:47:36;12.75;;;8.05;;
4857;SDS011;58975;51.978;8.472;2022-12-07T19:52:33;25.38;;;10.98;;
4857;SDS011;58975;51.978;8.472;2022-12-07T19:57:32;24.42;;;9.77;;
4857;SDS011;58975;51.978;8.472;2022-12-07T20:02:28;18.10;;;9.77;;
4857;SDS011;58975;51.978;8.472;2022-12-07T20:07:25;22.50;;;10.02;;
4857;SDS011;58975;51.978;8.472;2022-12-07T20:12:21;17.48;;;10.70;;
4857;SDS011;58975;51.978;8.472;2022-12-07T20:17:36;28.05;;;9.70;;
4857;SDS011;58975;51.978;8.472;2022-12-07T20:22:32;19.00;;;10.75;;
4857;SDS011;58975;51.978;8.472;2022-12-07T20:27:29;21.77;;;10.07;;
4857;SDS011;58975;51.978;8.472;2022-12-07T20:32:25;18.90;;;10.38;;
4857;SDS011;58975;51.978;8.472;2022-12-07T20:37:21;23.17;;;11.05;;
4857;SDS011;58975;51.978;8.472;2022-12-07T20:42:18;17.98;;;10.38;;
4857;SDS011;58975;51.978;8.472;2022-12-07T20:47:33;24.80;;;12.48;;
4857;SDS011;58975;51.978;8.472;2022-12-07T20:52:29;18.65;;;11.35;;
4857;SDS011;58975;51.978;8.472;2022-12-07T20:57:26;19.90;;;12.75;;
4857;SDS011;58975;51.978;8.472;2022-12-07T21:02:22;23.38;;;11.65;;
4857;SDS011;58975;51.978;8.472;2022-12-07T21:07:19;19.30;;;11.68;;
4857;SDS011;58975;51.978;8.472;2022-12-07T21:12:16;24.27;;;11.38;;
4857;SDS011;58975;51.978;8.472;2022-12-07T21:17:12;19.55;;;11.70;;
4857;SDS011;58975;51.978;8.472;2022-12-07T21:22:08;20.50;;;11.82;;
4857;SDS011;58975;51.978;8.472;2022-12-07T21:27:05;21.70;;;11.50;;
4857;SDS011;58975;51.978;8.472;2022-12-07T21:32:02;19.52;;;11.05;;
4857;SDS011;58975;51.978;8.472;2022-12-07T21:36:58;21.05;;;11.18;;
4857;SDS011;58975;51.978;8.472;2022-12-07T21:41:55;18.55;;;11.15;;
4857;SDS011;58975;51.978;8.472;2022-12-07T21:46:51;19.65;;;10.38;;
4857;SDS011;58975;51.978;8.472;2022-12-07T21:51:48;16.48;;;9.50;;
4857;SDS011;58975;51.978;8.472;2022-12-07T21:56:44;20.98;;;10.52;;
4857;SDS011;58975;51.978;8.472;2022-12-07T22:01:41;22.95;;;10.48;;
4857;SDS011;58975;51.978;8.472;2022-12-07T22:06:42;19.17;;;10.77;;
4857;SDS011;58975;51.978;8.472;2022-12-07T22:11:40;22.43;;;10.27;;
4857;SDS011;58975;51.978;8.472;2022-12-07T22:16:37;26.77;;;11.38;;
4857;SDS011;58975;51.978;8.472;2022-12-07T22:21:34;25.23;;;10.60;;
4857;SDS011;58975;51.978;8.472;2022-12-07T22:26:31;18.20;;;10.18;;
4857;SDS011;58975;51.978;8.472;2022-12-07T22:31:27;18.67;;;10.18;;
4857;SDS011;58975;51.978;8.472;2022-12-07T22:36:24;24.50;;;11.15;;
4857;SDS011;58975;51.978;8.472;2022-12-07T22:41:23;22.75;;;10.70;;
4857;SDS011;58975;51.978;8.472;2022-12-07T22:46:22;21.08;;;10.57;;
4857;SDS011;58975;51.978;8.472;2022-12-07T22:51:29;18.63;;;10.95;;
4857;SDS011;58975;51.978;8.472;2022-12-07T22:56:34;25.80;;;11.90;;
4857;SDS011;58975;51.978;8.472;2022-12-07T23:01:31;21.13;;;10.38;;
4857;SDS011;58975;51.978;8.472;2022-12-07T23:06:29;21.45;;;10.57;;
4857;SDS011;58975;51.978;8.472;2022-12-07T23:11:28;18.90;;;9.80;;
4857;SDS011;58975;51.978;8.472;2022-12-07T23:16:45;19.43;;;10.17;;
4857;SDS011;58975;51.978;8.472;2022-12-07T23:21:42;23.23;;;11.02;;
4857;SDS011;58975;51.978;8.472;2022-12-07T23:26:39;19.30;;;9.50;;
4857;SDS011;58975;51.978;8.472;2022-12-07T23:31:39;23.67;;;10.52;;
4857;SDS011;58975;51.978;8.472;2022-12-07T23:36:36;22.85;;;12.25;;
4857;SDS011;58975;51.978;8.472;2022-12-07T23:41:32;25.52;;;11.02;;
4857;SDS011;58975;51.978;8.472;2022-12-07T23:46:29;23.05;;;12.07;;
4857;SDS011;58975;51.978;8.472;2022-12-07T23:51:27;21.90;;;12.25;;
4857;SDS011;58975;51.978;8.472;2022-12-07T23:56:25;22.63;;;12.13;;
